Time;durP1;ratioP1;P1;durP2;ratioP2;P2;SDS_P1;SDS_P2;PMS_P1;PMS_P2;Temp;Humidity;BMP_temperature;BMP_pressure;BME280_temperature;BME280_humidity;BME280_pressure;Samples;Min_cycle;Max_cycle;Signal;HPM_P1;HPM_P2
2022/10/24 00:00:27;;;;;;;4.63;2.47;;;;;;;13.62;100.00;99464.22;5021207;28;20489;-83
2022/10/24 00:02:55;;;;;;;4.17;2.93;;;;;;;13.58;100.00;99462.91;5006115;28;20484;-83
2022/10/24 00:05:22;;;;;;;6.43;3.17;;;;;;;13.54;100.00;99471.34;5001908;28;20963;-83
2022/10/24 00:07:49;;;;;;;5.63;2.70;;;;;;;13.72;100.00;99473.69;5002588;28;20476;-83
2022/10/24 00:10:16;;;;;;;5.20;3.03;;;;;;;13.81;100.00;99476.34;5001654;28;20507;-82
2022/10/24 00:12:43;;;;;;;8.93;3.40;;;;;;;14.05;100.00;99465.34;5017232;28;20473;-82
2022/10/24 00:15:10;;;;;;;4.80;3.47;;;;;;;14.21;100.00;99464.34;5015192;28;20507;-83
2022/10/24 00:17:37;;;;;;;3.40;2.70;;;;;;;14.19;100.00;99461.03;5002559;28;20459;-82
2022/10/24 00:20:06;;;;;;;5.30;3.70;;;;;;;14.16;100.00;99457.88;5002155;28;20628;-85
2022/10/24 00:22:32;;;;;;;4.80;2.97;;;;;;;14.34;100.00;99452.97;5001431;28;20551;-85
2022/10/24 00:24:59;;;;;;;6.73;3.10;;;;;;;14.40;100.00;99444.16;5002012;28;20542;-85
2022/10/24 00:27:26;;;;;;;11.07;3.20;;;;;;;14.45;100.00;99438.25;5001457;28;20572;-85
2022/10/24 00:29:52;;;;;;;5.97;3.43;;;;;;;14.44;100.00;99442.78;5007458;28;20558;-84
2022/10/24 00:32:19;;;;;;;15.60;3.93;;;;;;;14.48;99.83;99443.25;5007585;28;20610;-85
2022/10/24 00:34:46;;;;;;;8.70;3.30;;;;;;;14.52;100.00;99436.47;5021296;28;20503;-85
2022/10/24 00:37:14;;;;;;;7.70;3.30;;;;;;;14.56;99.32;99437.75;5019896;28;20554;-84
2022/10/24 00:39:40;;;;;;;12.57;4.40;;;;;;;14.79;98.65;99431.44;5016003;28;20455;-84
2022/10/24 00:42:07;;;;;;;7.10;3.57;;;;;;;14.77;98.18;99441.56;5005158;28;20516;-85
2022/10/24 00:44:37;;;;;;;6.13;3.50;;;;;;;15.04;96.89;99434.66;5015534;28;20482;-84
2022/10/24 00:47:07;;;;;;;14.23;4.40;;;;;;;15.17;96.29;99433.97;4986989;28;20511;-86
2022/10/24 00:49:40;;;;;;;8.40;3.40;;;;;;;15.15;95.88;99431.47;5001846;28;20539;-85
2022/10/24 00:52:08;;;;;;;9.33;3.40;;;;;;;15.19;95.67;99423.84;5001253;28;20490;-86
2022/10/24 00:54:37;;;;;;;8.10;3.30;;;;;;;15.15;95.45;99418.00;5015215;28;20502;-83
2022/10/24 00:57:09;;;;;;;6.40;3.90;;;;;;;15.24;94.29;99407.94;5018720;28;20497;-84
2022/10/24 00:59:37;;;;;;;8.50;3.37;;;;;;;15.29;93.88;99408.19;5001388;28;20490;-85
2022/10/24 01:02:03;;;;;;;6.67;3.67;;;;;;;15.21;93.96;99405.66;5001197;28;20542;-86
2022/10/24 01:04:30;;;;;;;11.20;3.37;;;;;;;15.27;93.66;99398.66;5001980;28;20540;-86
2022/10/24 01:07:04;;;;;;;9.23;3.90;;;;;;;15.29;93.07;99405.50;5002560;28;20555;-86
2022/10/24 01:09:52;;;;;;;6.10;3.30;;;;;;;15.35;92.61;99398.53;5024444;28;20639;-87
2022/10/24 01:12:25;;;;;;;7.60;2.97;;;;;;;15.43;91.97;99401.94;5020970;28;20478;-85
2022/10/24 01:14:56;;;;;;;12.43;3.53;;;;;;;15.47;91.01;99391.59;5004022;28;20475;-85
2022/10/24 01:17:28;;;;;;;13.57;2.80;;;;;;;15.62;90.35;99399.59;5004710;28;20861;-84
2022/10/24 01:20:24;;;;;;;3.23;2.53;;;;;;;15.59;90.11;99398.13;5004431;28;20510;-84
2022/10/24 01:23:01;;;;;;;10.90;2.80;;;;;;;15.61;89.83;99393.38;5005357;28;20459;-84
2022/10/24 01:25:37;;;;;;;6.00;2.40;;;;;;;15.74;88.36;99379.16;5004739;28;20527;-85
2022/10/24 01:28:09;;;;;;;9.47;2.80;;;;;;;15.80;87.91;99397.28;5004709;28;20467;-82
2022/10/24 01:30:42;;;;;;;6.60;3.23;;;;;;;15.72;88.12;99375.00;5004314;28;20986;-83
2022/10/24 01:33:16;;;;;;;5.00;2.70;;;;;;;15.69;88.05;99370.84;5021274;28;20483;-83
2022/10/24 01:35:48;;;;;;;9.50;3.03;;;;;;;15.66;88.89;99373.09;5024171;28;20497;-83
2022/10/24 01:38:19;;;;;;;6.70;2.60;;;;;;;15.46;89.58;99371.06;5007084;28;20487;-84
2022/10/24 01:40:51;;;;;;;6.67;3.53;;;;;;;15.43;89.63;99371.44;5006366;28;20563;-84
2022/10/24 01:43:21;;;;;;;7.30;3.10;;;;;;;15.39;89.77;99364.78;5023779;28;20455;-84
2022/10/24 01:45:51;;;;;;;10.17;3.10;;;;;;;15.46;89.52;99357.59;5006999;28;20695;-85
2022/10/24 01:48:20;;;;;;;9.93;3.50;;;;;;;15.48;89.35;99362.81;5004876;28;20854;-84
2022/10/24 01:50:49;;;;;;;4.20;2.60;;;;;;;15.42;89.11;99354.47;5003652;28;20904;-84
2022/10/24 01:53:16;;;;;;;9.67;3.33;;;;;;;15.43;88.59;99349.91;5006160;28;20501;-84
2022/10/24 01:55:44;;;;;;;8.33;2.67;;;;;;;15.78;85.73;99360.81;5017953;28;20564;-83
2022/10/24 01:58:10;;;;;;;7.70;3.20;;;;;;;15.90;84.44;99355.69;5014484;28;20598;-85
2022/10/24 02:00:37;;;;;;;7.33;2.83;;;;;;;15.96;83.60;99358.41;5005881;28;20495;-83
2022/10/24 02:03:11;;;;;;;6.43;3.30;;;;;;;16.14;82.39;99346.28;5004438;28;20452;-85
2022/10/24 02:05:41;;;;;;;8.77;2.93;;;;;;;16.10;83.01;99347.72;5003540;28;21002;-84
2022/10/24 02:08:10;;;;;;;7.00;3.80;;;;;;;16.04;83.27;99332.31;5004695;28;20448;-84
2022/10/24 02:10:40;;;;;;;8.00;3.17;;;;;;;15.97;83.99;99330.44;5003410;28;20506;-85
2022/10/24 02:13:11;;;;;;;9.07;2.70;;;;;;;15.86;84.35;99332.84;4984633;28;20920;-84
2022/10/24 02:15:41;;;;;;;10.00;2.90;;;;;;;15.89;84.25;99335.16;4983815;28;20488;-84
2022/10/24 02:18:09;;;;;;;7.77;3.10;;;;;;;15.79;84.42;99325.53;5003502;28;20510;-86
2022/10/24 02:20:41;;;;;;;7.03;3.70;;;;;;;15.87;84.09;99329.97;5002978;28;20499;-85
2022/10/24 02:23:12;;;;;;;5.90;2.87;;;;;;;15.80;84.08;99324.53;5021583;28;20512;-84
2022/10/24 02:25:41;;;;;;;6.23;3.07;;;;;;;15.93;83.01;99317.56;5023054;28;20482;-84
2022/10/24 02:28:10;;;;;;;6.40;2.90;;;;;;;15.97;82.36;99326.91;5004197;28;20528;-85
2022/10/24 02:30:40;;;;;;;7.03;3.23;;;;;;;16.03;81.15;99309.13;5016196;28;20519;-85
2022/10/24 02:33:09;;;;;;;5.13;2.40;;;;;;;16.38;78.85;99316.09;5019968;28;20487;-85
2022/10/24 02:35:37;;;;;;;6.97;3.50;;;;;;;16.23;79.34;99314.59;5003291;28;20476;-84
2022/10/24 02:38:09;;;;;;;7.47;2.43;;;;;;;16.32;78.59;99305.31;5008432;28;20490;-84
2022/10/24 02:40:35;;;;;;;6.53;2.97;;;;;;;16.36;77.66;99301.16;5022754;28;20502;-84
2022/10/24 02:43:04;;;;;;;15.90;3.27;;;;;;;16.27;77.76;99305.91;5007490;28;20480;-84
2022/10/24 02:45:31;;;;;;;2.50;2.30;;;;;;;16.40;77.33;99299.72;5002957;28;20506;-85
2022/10/24 02:48:01;;;;;;;9.27;3.00;;;;;;;16.31;77.68;99300.94;5003194;28;20532;-84
2022/10/24 02:50:30;;;;;;;12.00;3.00;;;;;;;16.21;77.54;99303.19;5014264;28;20533;-85
2022/10/24 02:52:57;;;;;;;7.17;2.70;;;;;;;16.28;77.55;99312.13;5022675;28;20518;-85
2022/10/24 02:55:23;;;;;;;7.33;2.63;;;;;;;16.28;77.26;99309.44;5010188;28;20467;-85
2022/10/24 02:57:50;;;;;;;4.40;2.97;;;;;;;16.19;77.46;99303.38;5003157;28;20559;-85
2022/10/24 03:00:17;;;;;;;6.37;3.00;;;;;;;16.23;77.84;99301.97;5012542;28;20483;-85
2022/10/24 03:02:44;;;;;;;5.70;2.80;;;;;;;16.24;77.72;99308.19;5020487;28;20452;-85
2022/10/24 03:05:10;;;;;;;8.20;2.73;;;;;;;16.16;77.68;99301.06;5002220;28;20449;-86
2022/10/24 03:07:38;;;;;;;5.77;2.33;;;;;;;16.09;77.95;99297.50;5003118;28;20515;-82
2022/10/24 03:10:05;;;;;;;8.20;2.73;;;;;;;16.09;78.12;99295.66;5010919;28;20569;-83
2022/10/24 03:12:32;;;;;;;3.13;2.20;;;;;;;16.04;78.50;99291.88;5022360;28;20483;-84
2022/10/24 03:14:59;;;;;;;7.40;3.00;;;;;;;15.99;78.75;99297.91;5014463;28;20527;-83
2022/10/24 03:17:25;;;;;;;8.20;3.03;;;;;;;15.97;78.92;99298.09;5002616;28;20511;-83
2022/10/24 03:19:52;;;;;;;9.43;3.90;;;;;;;15.86;79.38;99289.72;5002369;28;20977;-84
2022/10/24 03:22:18;;;;;;;9.43;2.83;;;;;;;15.96;79.11;99292.91;5002164;28;20535;-84
2022/10/24 03:24:46;;;;;;;8.07;2.80;;;;;;;16.02;78.66;99293.97;5006507;28;20492;-86
2022/10/24 03:27:13;;;;;;;5.73;3.23;;;;;;;16.04;79.12;99298.13;5021886;28;20546;-86
2022/10/24 03:29:39;;;;;;;5.43;2.77;;;;;;;16.04;78.74;99303.53;5017519;28;20562;-84
2022/10/24 03:32:06;;;;;;;7.97;2.90;;;;;;;16.09;78.29;99303.75;5002021;28;20965;-86
2022/10/24 03:34:33;;;;;;;8.77;3.20;;;;;;;16.11;78.91;99301.69;4983024;28;20456;-87
2022/10/24 03:37:00;;;;;;;7.50;2.70;;;;;;;16.07;78.95;99296.88;4983014;28;20583;-86
2022/10/24 03:39:27;;;;;;;7.13;3.03;;;;;;;15.99;79.33;99293.34;5010557;28;20451;-86
2022/10/24 03:41:55;;;;;;;5.80;2.53;;;;;;;15.97;79.00;99289.16;5012041;28;20515;-86
2022/10/24 03:44:21;;;;;;;7.63;3.20;;;;;;;15.99;78.81;99284.41;5010141;28;20488;-88
2022/10/24 03:46:48;;;;;;;10.00;3.37;;;;;;;16.05;78.07;99286.31;5009963;28;20507;-86
2022/10/24 03:49:14;;;;;;;9.17;3.47;;;;;;;16.12;78.01;99289.03;5002460;28;20495;-88
2022/10/24 03:51:41;;;;;;;6.60;3.13;;;;;;;15.94;78.57;99289.56;5001653;28;21008;-84
2022/10/24 03:54:08;;;;;;;6.00;3.17;;;;;;;15.97;78.40;99281.91;5006644;28;20474;-85
2022/10/24 03:56:35;;;;;;;5.20;3.00;;;;;;;15.84;78.89;99281.00;5021751;28;20478;-86
2022/10/24 03:59:03;;;;;;;5.10;3.33;;;;;;;15.84;79.04;99283.72;5020110;28;20533;-85
2022/10/24 04:01:29;;;;;;;7.43;3.33;;;;;;;15.78;79.17;99282.66;5011119;28;20491;-84
2022/10/24 04:03:56;;;;;;;5.43;3.20;;;;;;;15.74;79.21;99284.03;5014154;28;20508;-86
2022/10/24 04:06:23;;;;;;;5.93;2.90;;;;;;;15.71;79.22;99287.97;5010665;28;20559;-85
2022/10/24 04:08:49;;;;;;;10.70;2.90;;;;;;;15.67;79.79;99283.97;5002068;28;20511;-85
2022/10/24 04:11:16;;;;;;;5.10;2.77;;;;;;;15.65;79.72;99285.22;5019952;28;20625;-85
2022/10/24 04:13:42;;;;;;;6.90;2.50;;;;;;;15.69;79.43;99286.47;5021671;28;20459;-84
2022/10/24 04:16:10;;;;;;;9.73;2.67;;;;;;;15.67;79.24;99291.25;5002841;28;20511;-86
2022/10/24 04:18:37;;;;;;;7.07;2.70;;;;;;;15.61;79.88;99303.66;5001158;28;21033;-85
2022/10/24 04:21:04;;;;;;;4.10;2.87;;;;;;;15.60;80.07;99307.34;5001437;28;20507;-85
2022/10/24 04:23:34;;;;;;;10.57;3.23;;;;;;;15.60;80.21;99302.78;5002336;28;20464;-85
2022/10/24 04:26:01;;;;;;;10.27;3.53;;;;;;;15.59;79.79;99289.53;5001064;28;20886;-86
2022/10/24 04:28:28;;;;;;;11.77;2.80;;;;;;;15.59;80.32;99303.00;5000902;28;20483;-86
2022/10/24 04:30:55;;;;;;;5.67;3.10;;;;;;;15.59;80.51;99297.63;4999833;28;20467;-87
2022/10/24 04:33:24;;;;;;;3.37;2.53;;;;;;;15.49;80.77;99303.34;4999876;28;20488;-86
2022/10/24 04:35:51;;;;;;;5.30;2.77;;;;;;;15.44;81.01;99309.31;4999324;28;20516;-85
2022/10/24 04:38:18;;;;;;;6.43;2.43;;;;;;;15.49;80.55;99307.91;5004983;28;20875;-83
2022/10/24 04:40:46;;;;;;;9.60;2.97;;;;;;;15.56;80.34;99309.59;5003637;28;20503;-83
2022/10/24 04:43:12;;;;;;;4.63;2.50;;;;;;;15.61;79.59;99301.78;5007153;28;20769;-83
2022/10/24 04:45:39;;;;;;;5.93;2.40;;;;;;;15.71;79.09;99305.97;5004269;28;20496;-84
2022/10/24 04:48:06;;;;;;;6.07;2.87;;;;;;;15.70;79.23;99297.06;5004840;28;20464;-84
2022/10/24 04:50:34;;;;;;;11.83;2.73;;;;;;;15.82;78.62;99292.00;4999636;28;20878;-82
2022/10/24 04:53:01;;;;;;;10.77;3.00;;;;;;;15.94;78.29;99298.50;5014052;28;20490;-84
2022/10/24 04:55:28;;;;;;;8.07;2.40;;;;;;;15.96;78.12;99290.19;5012891;28;20466;-83
2022/10/24 04:57:55;;;;;;;8.00;3.70;;;;;;;16.07;77.72;99299.59;5016610;28;20547;-83
2022/10/24 05:00:22;;;;;;;7.73;3.10;;;;;;;15.97;77.70;99299.94;5008061;28;20484;-84
2022/10/24 05:02:51;;;;;;;7.47;3.43;;;;;;;15.98;77.72;99294.34;5009585;28;20923;-83
2022/10/24 05:05:18;;;;;;;10.00;3.13;;;;;;;16.11;77.46;99298.13;5006046;28;20508;-85
2022/10/24 05:07:46;;;;;;;7.73;2.70;;;;;;;16.12;77.19;99297.13;5011092;28;20498;-83
2022/10/24 05:10:14;;;;;;;6.77;2.53;;;;;;;16.20;76.60;99296.97;5004034;28;20503;-83
2022/10/24 05:12:41;;;;;;;5.73;2.87;;;;;;;16.19;76.52;99296.09;5005107;28;20539;-83
2022/10/24 05:15:08;;;;;;;7.97;2.57;;;;;;;16.14;76.54;99297.75;5004021;28;20464;-91
2022/10/24 05:17:35;;;;;;;7.57;2.77;;;;;;;16.24;76.29;99303.59;5004544;28;20510;-81
2022/10/24 05:20:02;;;;;;;12.60;2.83;;;;;;;16.26;76.19;99306.94;5005032;28;20491;-83
2022/10/24 05:22:28;;;;;;;8.33;2.60;;;;;;;16.18;76.13;99307.13;5005341;28;20529;-82
2022/10/24 05:24:56;;;;;;;8.30;3.20;;;;;;;16.30;75.28;99300.13;5007908;28;20483;-80
2022/10/24 05:27:24;;;;;;;8.93;3.23;;;;;;;16.35;75.32;99289.56;5005093;28;20507;-82
2022/10/24 05:29:51;;;;;;;7.00;2.70;;;;;;;16.27;75.11;99291.59;5004391;28;20859;-82
2022/10/24 05:32:17;;;;;;;6.57;2.63;;;;;;;16.32;75.14;99287.25;5009297;28;20479;-82
2022/10/24 05:34:44;;;;;;;6.20;2.77;;;;;;;16.36;74.47;99279.59;5004590;28;20447;-80
2022/10/24 05:37:11;;;;;;;7.33;2.83;;;;;;;16.37;74.27;99275.88;5003597;28;20530;-82
2022/10/24 05:39:37;;;;;;;8.20;2.80;;;;;;;16.37;74.23;99275.88;5003809;28;21133;-82
2022/10/24 05:42:05;;;;;;;7.53;2.70;;;;;;;16.36;74.05;99288.50;5001999;28;20507;-81
2022/10/24 05:44:32;;;;;;;8.83;3.07;;;;;;;16.35;74.42;99277.91;5004273;28;20467;-82
2022/10/24 05:46:59;;;;;;;10.77;2.50;;;;;;;16.49;73.44;99278.78;5001187;28;20546;-82
2022/10/24 05:49:25;;;;;;;11.37;2.90;;;;;;;16.40;73.85;99274.63;5002977;28;20553;-81
2022/10/24 05:51:52;;;;;;;5.53;2.40;;;;;;;16.39;73.73;99276.50;5003672;28;20510;-81
2022/10/24 05:54:19;;;;;;;7.00;2.40;;;;;;;16.34;73.43;99263.59;5003612;28;20552;-82
2022/10/24 05:56:45;;;;;;;13.07;2.50;;;;;;;16.34;73.71;99268.19;5003264;28;21163;-81
2022/10/24 05:59:13;;;;;;;4.53;2.43;;;;;;;16.30;73.71;99283.94;5003712;28;20456;-82
2022/10/24 06:01:40;;;;;;;7.37;2.67;;;;;;;16.30;73.80;99294.72;5001985;28;20516;-82
2022/10/24 06:04:08;;;;;;;6.70;2.50;;;;;;;16.37;73.21;99286.66;5003114;28;20556;-83
2022/10/24 06:06:38;;;;;;;9.10;2.30;;;;;;;16.30;73.32;99294.72;4993038;28;20611;-82
2022/10/24 06:09:05;;;;;;;9.80;2.43;;;;;;;16.32;73.41;99299.91;5000317;28;20526;-82
2022/10/24 06:11:32;;;;;;;9.37;2.93;;;;;;;16.34;73.38;99301.38;5001440;28;20925;-82
2022/10/24 06:13:59;;;;;;;7.17;2.40;;;;;;;16.46;72.61;99296.22;5001994;28;20464;-82
2022/10/24 06:16:29;;;;;;;7.43;2.40;;;;;;;16.43;72.81;99293.09;5001028;28;20511;-81
2022/10/24 06:18:55;;;;;;;8.57;2.37;;;;;;;16.31;72.89;99300.94;5002857;28;20480;-80
2022/10/24 06:21:22;;;;;;;10.57;2.10;;;;;;;16.38;72.50;99305.31;5002916;28;20692;-82
2022/10/24 06:23:49;;;;;;;8.10;2.50;;;;;;;16.44;71.85;99306.41;5002777;28;20424;-81
2022/10/24 06:26:15;;;;;;;8.30;2.53;;;;;;;16.53;71.80;99309.75;5001915;28;20986;-82
2022/10/24 06:28:42;;;;;;;3.87;2.20;;;;;;;16.47;71.71;99319.47;5001813;28;20456;-81
2022/10/24 06:31:11;;;;;;;9.83;2.67;;;;;;;16.49;71.47;99319.25;5001535;28;20551;-79
2022/10/24 06:33:39;;;;;;;5.10;2.10;;;;;;;16.54;71.42;99331.13;5003312;28;20471;-81
2022/10/24 06:36:08;;;;;;;4.93;2.20;;;;;;;16.57;70.76;99329.88;5002711;28;20499;-82
2022/10/24 06:38:35;;;;;;;5.93;1.90;;;;;;;16.80;70.32;99326.81;5002255;28;20475;-83
2022/10/24 06:41:05;;;;;;;5.93;2.60;;;;;;;16.70;70.42;99334.47;5002129;28;20499;-82
2022/10/24 06:43:32;;;;;;;4.07;2.10;;;;;;;16.80;69.40;99339.50;5002538;28;20468;-81
2022/10/24 06:45:58;;;;;;;5.60;2.20;;;;;;;16.85;69.88;99340.59;5001050;28;20483;-82
2022/10/24 06:48:25;;;;;;;9.33;2.57;;;;;;;16.81;69.55;99330.38;5002910;28;20475;-81
2022/10/24 06:50:53;;;;;;;7.50;2.30;;;;;;;16.98;68.81;99338.94;5001479;28;20487;-81
2022/10/24 06:53:20;;;;;;;5.70;1.77;;;;;;;17.05;68.04;99348.75;5002367;28;20486;-82
2022/10/24 06:55:46;;;;;;;5.87;2.80;;;;;;;17.22;67.99;99353.72;5001853;28;20479;-83
2022/10/24 06:58:13;;;;;;;10.43;3.20;;;;;;;17.03;68.47;99348.13;5002759;28;20559;-82
2022/10/24 07:00:39;;;;;;;4.60;2.23;;;;;;;17.08;67.97;99347.47;4999929;28;20495;-81
2022/10/24 07:03:06;;;;;;;4.47;1.80;;;;;;;17.23;67.33;99347.31;5002148;28;20954;-82
2022/10/24 07:05:33;;;;;;;5.93;2.27;;;;;;;17.40;66.95;99361.25;5001276;28;20503;-82
2022/10/24 07:08:01;;;;;;;9.30;2.60;;;;;;;17.37;66.68;99358.97;5001601;28;20447;-81
2022/10/24 07:10:27;;;;;;;8.77;2.10;;;;;;;17.55;66.17;99361.03;5001624;28;20479;-82
2022/10/24 07:12:54;;;;;;;7.00;2.50;;;;;;;17.47;66.27;99370.19;5002103;28;20517;-81
2022/10/24 07:15:20;;;;;;;13.67;2.53;;;;;;;17.68;65.23;99369.16;4999322;28;20538;-82
2022/10/24 07:17:57;;;;;;;5.87;1.43;;;;;;;17.84;64.48;99373.28;5002693;28;20507;-84
2022/10/24 07:20:23;;;;;;;8.33;2.70;;;;;;;17.96;64.17;99374.34;5001819;28;20464;-83
2022/10/24 07:22:50;;;;;;;8.20;2.53;;;;;;;18.12;63.19;99377.66;5001472;28;20479;-83
2022/10/24 07:25:18;;;;;;;12.43;2.23;;;;;;;18.81;60.91;99374.28;5001421;28;20448;-83
2022/10/24 07:27:45;;;;;;;7.40;2.00;;;;;;;18.74;60.83;99378.06;5002177;28;20449;-82
2022/10/24 07:30:16;;;;;;;8.00;2.17;;;;;;;19.07;59.30;99385.22;4999728;28;20551;-83
2022/10/24 07:32:42;;;;;;;2.83;1.63;;;;;;;19.34;58.67;99380.50;5001607;28;20563;-83
2022/10/24 07:35:11;;;;;;;3.40;1.90;;;;;;;19.01;59.28;99373.41;5001528;28;20475;-82
2022/10/24 07:37:38;;;;;;;4.37;1.80;;;;;;;18.66;60.57;99373.72;5000916;28;20501;-81
2022/10/24 07:40:05;;;;;;;5.60;1.97;;;;;;;18.79;60.03;99370.13;5002203;28;20543;-82
2022/10/24 07:42:33;;;;;;;6.50;2.20;;;;;;;18.80;59.49;99378.06;5001044;28;20491;-81
2022/10/24 07:45:01;;;;;;;5.87;1.90;;;;;;;18.82;59.66;99375.16;5000639;28;20507;-83
2022/10/24 07:47:28;;;;;;;3.93;2.17;;;;;;;19.17;58.54;99377.47;5001273;28;20481;-82
2022/10/24 07:49:55;;;;;;;3.43;1.70;;;;;;;19.85;56.39;99373.22;5001741;28;20544;-82
2022/10/24 07:52:21;;;;;;;6.87;1.83;;;;;;;20.30;54.79;99373.78;4999820;28;20472;-81
2022/10/24 07:54:48;;;;;;;3.73;1.70;;;;;;;20.35;54.84;99366.88;5001658;28;20461;-82
2022/10/24 07:57:15;;;;;;;6.60;2.13;;;;;;;20.10;54.60;99373.16;5000960;28;20518;-83
2022/10/24 07:59:43;;;;;;;4.10;1.50;;;;;;;20.80;53.19;99385.56;5000806;28;20899;-83
2022/10/24 08:02:11;;;;;;;5.83;1.90;;;;;;;20.28;55.19;99385.94;5000503;28;20503;-83
2022/10/24 08:04:37;;;;;;;6.13;1.77;;;;;;;19.74;55.53;99381.03;5001691;28;20435;-82
2022/10/24 08:07:06;;;;;;;4.70;2.23;;;;;;;20.13;54.93;99381.69;4999830;28;20520;-84
2022/10/24 08:09:37;;;;;;;6.83;1.73;;;;;;;20.19;54.76;99381.84;5001007;28;20513;-84
2022/10/24 08:12:04;;;;;;;5.23;1.93;;;;;;;19.70;56.41;99373.50;5000798;28;20498;-83
2022/10/24 08:14:30;;;;;;;7.53;2.03;;;;;;;19.88;56.49;99373.59;5000575;28;20533;-82
2022/10/24 08:16:58;;;;;;;6.03;2.40;;;;;;;19.52;57.67;99377.00;5004068;28;20483;-84
2022/10/24 08:19:25;;;;;;;4.60;1.50;;;;;;;19.60;57.44;99362.34;5005064;28;20957;-81
2022/10/24 08:21:52;;;;;;;3.90;2.27;;;;;;;20.20;54.55;99359.09;5004236;28;20553;-83
2022/10/24 08:24:19;;;;;;;5.20;1.50;;;;;;;20.58;53.37;99356.13;5005162;28;20536;-82
2022/10/24 08:26:46;;;;;;;5.37;1.73;;;;;;;21.54;51.20;99363.59;5004898;28;20506;-82
2022/10/24 08:29:13;;;;;;;7.03;1.77;;;;;;;22.69;47.33;99348.50;5004213;28;20471;-81
2022/10/24 08:31:42;;;;;;;7.87;2.00;;;;;;;22.86;46.49;99353.16;5004855;28;20479;-82
2022/10/24 08:34:12;;;;;;;4.93;2.00;;;;;;;23.36;45.08;99352.47;5005271;28;20839;-83
2022/10/24 08:36:38;;;;;;;5.57;1.57;;;;;;;23.48;45.28;99355.13;5001136;28;20487;-83
2022/10/24 08:39:05;;;;;;;4.03;1.50;;;;;;;24.43;42.91;99361.47;5005233;28;20720;-82
2022/10/24 08:41:37;;;;;;;5.23;1.73;;;;;;;24.56;42.60;99354.00;5004753;28;20478;-82
2022/10/24 08:44:07;;;;;;;3.87;1.70;;;;;;;24.15;43.30;99348.00;5004179;28;20447;-83
2022/10/24 08:46:43;;;;;;;4.93;2.10;;;;;;;24.58;42.88;99357.28;5004416;28;20484;-81
2022/10/24 08:49:17;;;;;;;2.53;1.60;;;;;;;23.39;45.28;99353.88;5005134;28;20478;-82
2022/10/24 08:51:47;;;;;;;9.03;1.70;;;;;;;23.75;43.62;99358.03;5003133;28;20516;-83
2022/10/24 08:54:17;;;;;;;9.57;1.47;;;;;;;22.36;47.38;99360.09;5005035;28;20470;-81
2022/10/24 08:56:44;;;;;;;7.60;1.83;;;;;;;22.10;48.23;99354.06;5004184;28;20565;-82
2022/10/24 08:59:11;;;;;;;8.83;1.70;;;;;;;21.03;50.78;99357.66;5003604;28;20476;-83
2022/10/24 09:01:42;;;;;;;4.40;1.50;;;;;;;21.58;49.07;99348.50;5004299;28;20537;-81
2022/10/24 09:04:10;;;;;;;5.90;1.60;;;;;;;22.61;46.78;99357.06;5004615;28;20486;-83
2022/10/24 09:06:38;;;;;;;3.27;1.33;;;;;;;23.23;45.52;99361.81;5003619;28;21020;-85
2022/10/24 09:09:10;;;;;;;7.37;1.30;;;;;;;24.24;43.64;99360.94;5004253;28;20509;-86
2022/10/24 09:11:43;;;;;;;3.60;1.50;;;;;;;24.57;42.18;99344.72;5004043;28;20809;-83
2022/10/24 09:14:12;;;;;;;6.47;1.50;;;;;;;24.77;40.88;99361.38;5003178;28;20462;-86
2022/10/24 09:16:41;;;;;;;5.50;1.50;;;;;;;24.39;42.05;99375.88;5003889;28;20492;-85
2022/10/24 09:19:10;;;;;;;5.00;1.50;;;;;;;24.25;42.42;99365.34;5004751;28;20461;-86
2022/10/24 09:21:40;;;;;;;7.73;1.60;;;;;;;24.08;43.74;99366.44;5003058;28;20490;-84
2022/10/24 09:24:07;;;;;;;7.90;1.57;;;;;;;21.86;47.54;99368.75;5004806;28;20498;-82
2022/10/24 09:26:36;;;;;;;4.83;1.23;;;;;;;21.94;48.36;99368.38;5004136;28;20486;-86
2022/10/24 09:29:03;;;;;;;4.50;1.80;;;;;;;20.96;50.58;99375.94;5002670;28;20494;-85
2022/10/24 09:31:30;;;;;;;5.97;2.10;;;;;;;20.18;53.79;99372.88;5004302;28;20578;-85
2022/10/24 09:33:59;;;;;;;5.83;2.10;;;;;;;19.90;54.51;99371.50;5004774;28;20849;-85
2022/10/24 09:36:30;;;;;;;5.90;2.10;;;;;;;19.57;55.48;99383.41;5002637;28;20478;-86
2022/10/24 09:39:22;;;;;;;2.63;1.30;;;;;;;19.24;56.43;99382.84;5004526;28;20652;-85
2022/10/24 09:41:49;;;;;;;4.13;1.77;;;;;;;19.07;57.47;99379.81;5002491;28;20546;-86
2022/10/24 09:44:30;;;;;;;4.07;1.50;;;;;;;18.84;58.15;99396.63;5003395;28;20464;-86
2022/10/24 09:46:57;;;;;;;8.20;1.50;;;;;;;18.72;58.39;99401.84;5003676;28;20527;-86
2022/10/24 09:49:26;;;;;;;8.97;1.60;;;;;;;18.54;59.43;99399.81;5003257;28;20507;-85
2022/10/24 09:52:02;;;;;;;6.63;1.63;;;;;;;18.56;59.20;99397.75;5003014;28;20472;-83
2022/10/24 09:54:31;;;;;;;5.63;1.60;;;;;;;18.52;58.88;99400.03;5004341;28;20448;-85
2022/10/24 09:57:02;;;;;;;4.57;1.53;;;;;;;18.65;59.04;99407.28;5002770;28;20500;-86
2022/10/24 09:59:36;;;;;;;7.77;1.43;;;;;;;18.54;58.72;99407.94;5003250;28;20455;-85
2022/10/24 10:02:18;;;;;;;1.87;1.33;;;;;;;18.38;59.89;99411.94;5003283;28;20486;-85
2022/10/24 10:04:46;;;;;;;8.30;1.83;;;;;;;18.54;59.65;99419.59;5004457;28;20524;-85
2022/10/24 10:07:14;;;;;;;2.77;1.73;;;;;;;18.47;59.92;99423.34;5003491;28;20509;-84
2022/10/24 10:09:50;;;;;;;6.87;1.87;;;;;;;18.28;59.49;99415.09;5003501;28;20543;-82
2022/10/24 10:12:28;;;;;;;6.20;1.87;;;;;;;18.55;58.69;99421.25;5001772;28;20799;-85
2022/10/24 10:14:55;;;;;;;4.43;1.70;;;;;;;18.51;59.10;99424.63;5002880;28;20491;-86
2022/10/24 10:17:24;;;;;;;5.13;1.43;;;;;;;18.46;58.94;99427.13;5004256;28;20476;-85
2022/10/24 10:19:52;;;;;;;4.83;1.90;;;;;;;18.40;58.97;99434.19;5004215;28;20435;-85
2022/10/24 10:22:25;;;;;;;10.00;2.33;;;;;;;18.37;59.30;99440.88;5003858;28;20531;-87
2022/10/24 10:24:53;;;;;;;5.50;1.37;;;;;;;18.38;58.93;99428.16;5004850;28;20829;-85
2022/10/24 10:27:31;;;;;;;2.07;1.33;;;;;;;18.53;58.76;99431.47;5003592;28;20492;-85
2022/10/24 10:30:18;;;;;;;5.30;1.50;;;;;;;18.55;58.44;99439.38;5003910;28;20488;-86
2022/10/24 10:32:51;;;;;;;1.83;1.00;;;;;;;18.20;58.92;99443.19;5004137;28;20475;-85
2022/10/24 10:35:21;;;;;;;7.13;2.43;;;;;;;18.36;58.93;99435.66;5003701;28;20447;-86
2022/10/24 10:37:50;;;;;;;5.27;1.50;;;;;;;18.65;58.66;99436.22;5004832;28;20460;-86
2022/10/24 10:40:30;;;;;;;5.20;1.50;;;;;;;18.59;58.95;99446.00;5002493;28;20599;-86
2022/10/24 10:43:05;;;;;;;6.03;1.63;;;;;;;18.63;58.44;99458.91;5003469;28;20525;-85
2022/10/24 10:45:36;;;;;;;4.30;1.17;;;;;;;18.40;59.19;99458.56;5003739;28;20472;-86
2022/10/24 10:48:14;;;;;;;3.33;1.60;;;;;;;18.36;59.13;99458.16;5003313;28;20468;-87
2022/10/24 10:50:44;;;;;;;4.90;2.33;;;;;;;18.11;61.17;99482.31;5000139;28;20491;-87
2022/10/24 10:53:24;;;;;;;5.40;1.70;;;;;;;17.85;62.90;99486.66;5002256;28;20464;-85
2022/10/24 10:55:59;;;;;;;5.70;1.53;;;;;;;17.81;63.41;99476.44;4993940;28;20483;-86
2022/10/24 10:58:32;;;;;;;5.27;1.23;;;;;;;17.59;65.75;99483.94;5002680;28;20460;-85
2022/10/24 11:01:09;;;;;;;5.77;1.63;;;;;;;17.57;64.15;99472.47;5001841;28;20503;-86
2022/10/24 11:03:40;;;;;;;9.40;1.20;;;;;;;19.03;60.82;99470.72;5001993;28;20479;-86
2022/10/24 11:06:17;;;;;;;6.37;1.00;;;;;;;19.13;58.76;99468.34;5002426;28;20500;-85
2022/10/24 11:09:02;;;;;;;5.27;1.30;;;;;;;19.12;59.47;99466.69;5002292;28;20497;-85
2022/10/24 11:11:33;;;;;;;6.67;1.30;;;;;;;19.01;59.53;99460.09;5001135;28;20529;-85
2022/10/24 11:14:12;;;;;;;4.17;1.07;;;;;;;18.96;60.38;99470.72;5001911;28;20460;-86
2022/10/24 11:16:40;;;;;;;5.70;1.70;;;;;;;19.06;59.84;99471.09;5002311;28;20476;-86
2022/10/24 11:19:19;;;;;;;5.47;1.70;;;;;;;18.57;59.57;99469.75;5001786;28;20481;-86
2022/10/24 11:21:45;;;;;;;2.50;1.20;;;;;;;18.56;60.15;99474.34;5002020;28;20511;-82
2022/10/24 11:24:15;;;;;;;4.87;1.70;;;;;;;18.47;60.74;99464.81;5001826;28;20523;-82
2022/10/24 11:26:46;;;;;;;6.40;1.60;;;;;;;18.17;60.10;99478.78;5000736;28;20485;-82
2022/10/24 11:29:21;;;;;;;3.83;1.80;;;;;;;18.13;60.63;99493.78;5001129;28;20496;-82
2022/10/24 11:31:49;;;;;;;2.70;1.27;;;;;;;18.25;60.66;99485.84;5001174;28;20487;-82
2022/10/24 11:34:19;;;;;;;4.87;1.20;;;;;;;18.94;60.37;99465.53;5000562;28;20911;-82
2022/10/24 11:36:52;;;;;;;6.17;1.70;;;;;;;19.21;56.55;99470.00;5001827;28;20472;-82
2022/10/24 11:39:21;;;;;;;7.93;1.80;;;;;;;18.68;58.33;99473.69;5001929;28;20800;-82